Bright Kalu

Recruteur - Remo Stars
20 Févr 2028
Dimanche
Processus

Personnalité

Adaptabilité (1) Ambition (20) Controverse (17) Loyauté (8) Pression (9) Professionnalisme (11) Sportivité (19) Tempérament (6)

Profil

Style d'entraînement Démocratique
Diplôme National B
Détermination 2
Gestion des joueurs 6
Motivation 8
Discipline 10
Satisfaction professionnelle
100%
Fatigue
0%
Rôle Recruteur
Salaire 47.4K p/s
Contrat 14.03.2030

Performance

Comportement Bon
Efficacité de l'entraînement
18%
Développement des joueurs
30%
Prévention des blessures
20%
Mise en place tactique
20%

Événements récents

A participé à une réunion de recrutement maintenant
A participé à une réunion de recrutement 7j
A observé un match 7j
A observé un match 7j
A participé à une réunion de recrutement 14j
A observé un match 14j
A observé un match 14j
A observé un match 21j

Suivi en cours

138
Joueur Club Statut Capacité Confiance Observé Dernière observation Dernier vote
Fernando Bersano Madryn Actif 109 / 131 40% 3 21.01.2028 -
Gonzalo Asis Almagro Actif 110 / 106 40% 3 21.01.2028 -
Radinio Balker Huddersfield Town Négociation 133 / 115 40% 1 21.01.2028 -
Agustín Benítez Defensores Actif 103 / 128 40% 2 12.01.2028 -
Anton Stach Leeds United Actif 152 / 163 40% 4 12.01.2028 -
Jordan Williams Harrogate Town Actif 126 / 102 40% 1 12.01.2028 -
Ilja Zhbanov Akron Négociation 90 / 94 69% 1 01.01.2028 -
Anthony Okachi Reggiana Négociation 94 / 94 66% 1 01.01.2028 -
Vitaly Bondarev Akron Rapport prêt 94 / 104 66% 1 01.01.2028 -
Ivan Belikov Fakel Rapport prêt 99 / 105 67% 1 01.01.2028 -
Maximiliano Meléndez Chacarita Juniors Actif 123 / 116 40% 1 31.12.2027 -
Ramiro Hernandes Belgrano Actif 128 / 125 40% 1 31.12.2027 -
Marquinhos Spartak Moscow Actif 121 / 117 40% 1 31.12.2027 -
Dan Ballard Cardiff City Actif 142 / 144 40% 2 30.12.2027 -
Leandro Lozano Boca Juniors Actif 121 / 127 40% 1 30.12.2027 -
Josh Edwards Charlton Athletic Actif 126 / 142 40% 1 30.12.2027 -
Williams Manyama SuperSport United Actif 134 / 127 40% 6 28.12.2027 -
Andrés Álvarez Aguilas Doradas Actif 103 / 118 40% 4 28.12.2027 -
Aliu Salawudeen Ikorodu City Actif 96 / 104 40% 1 28.12.2027 -
Adam Randell Bristol City Actif 141 / 122 40% 2 27.12.2027 -
Gonzalo Abrego Godoy Cruz Actif 113 / 135 40% 4 26.12.2027 -
Gonzalo Gamarra Defensores Actif 110 / 93 40% 2 26.12.2027 -
Martín Garay Tigre Actif 133 / 114 40% 1 26.12.2027 -
Francisco Maidana Gimnasia y Esgrima Actif 104 / 118 40% 3 25.12.2027 -
Kevin O'Toole New York City Actif 122 / 110 40% 1 24.12.2027 -
Yvo Calleros Madryn Actif 103 / 98 40% 3 23.12.2027 -
Julián Cosi Madryn Actif 123 / 125 40% 2 23.12.2027 -
Marc Bola Watford Actif 111 / 135 40% 1 22.12.2027 -
Milan van Ewijk Mansfield Town Actif 143 / 142 40% 2 21.12.2027 -
Mateo Mendoza Godoy Cruz Actif 124 / 135 40% 5 21.12.2027 -
Braian Aranda Agropecuario Argentino Actif 124 / 121 40% 1 21.12.2027 -
Effimi Nsi Abia Warriors Actif 106 / 96 40% 2 18.12.2027 -
Tosin Adarabioyo Preston Actif 147 / 145 40% 2 18.12.2027 -
Erik de los Santos Racing Actif 124 / 113 40% 1 18.12.2027 -
Gonzalo Mottes Chacarita Juniors Actif 120 / 131 40% 6 17.12.2027 -
Nicolás Fernández Maipú Actif 122 / 117 40% 4 17.12.2027 -
Walter Juárez Güemes Actif 106 / 101 40% 3 15.12.2027 -
David Ayala Inter Miami CF Actif 126 / 127 40% 1 15.12.2027 -
Martín García Atlanta Actif 113 / 108 40% 3 13.12.2027 -
Mohammad Mukhtar Kano Pillars Actif 104 / 82 40% 3 13.12.2027 -
Luis Olivera Defensores Unidos Actif 112 / 123 40% 4 11.12.2027 -
Ezequiel Neira Carabobo Actif 126 / 115 40% 1 11.12.2027 -
Lewis Gibson Preston Actif 139 / 121 40% 1 09.12.2027 -
Godspower Akekoromowei El-Kanemi Warriors Actif 86 / 89 40% 1 09.12.2027 -
Maximiliano Ribero Central Norte Actif 124 / 111 40% 1 08.12.2027 -
Tristan Crama Lincoln City Actif 141 / 121 40% 2 07.12.2027 -
Abdulrafiu Taiwo Rivers United Actif 92 / 93 40% 3 06.12.2027 -
Nicolás Domínguez Huddersfield Town Actif 152 / 133 40% 1 06.12.2027 -
Mandla Erasmus SuperSport United Actif 135 / 110 40% 2 05.12.2027 -
Alpha Onyango Gor Mahia Actif 85 / 115 40% 1 05.12.2027 -
Fernando Martínez Central Córdoba SdE Actif 127 / 125 40% 3 03.12.2027 -
Dante Álvarez San Martín SJ Actif 97 / 124 40% 2 02.12.2027 -
Manuel Ugarte Portsmouth Actif 138 / 157 40% 2 02.12.2027 -
Enzo Silcan Almagro Actif 109 / 122 40% 2 30.11.2027 -
Franco Camargo Gimnasia y Esgrima Actif 116 / 101 40% 5 29.11.2027 -
Somiari Alalibo Abia Warriors Actif 90 / 97 40% 1 29.11.2027 -
Lorenzo Monti Temperley Actif 120 / 88 40% 2 27.11.2027 -
Matías Ruiz Díaz Estudiantes Actif 121 / 128 40% 2 27.11.2027 -
Alejandro Molina Tristán Suárez Actif 105 / 126 40% 1 26.11.2027 -
Ethan Ampadu Leeds United Actif 153 / 164 40% 1 26.11.2027 -
Fernando Miranda Colegiales Actif 119 / 107 40% 2 25.11.2027 -
Nicolás Paz San Martín SJ Actif 127 / 134 40% 3 23.11.2027 -
Maximiliano Luayza Koot Tristán Suárez Actif 104 / 111 40% 1 23.11.2027 -
Lautaro Núñez Alvarado Actif 96 / 108 40% 1 18.11.2027 -
Valentín Serrano Arsenal Actif 108 / 111 40% 2 16.11.2027 -
Lucas Monzón Alvarado Actif 100 / 120 40% 2 16.11.2027 -
Facundo Miño Deportivo Riestra Actif 135 / 141 40% 1 15.11.2027 -
Stephen Manyo Rivers United Actif 103 / 85 40% 2 14.11.2027 -
Isaí Valladares Zamora Actif 112 / 116 40% 1 14.11.2027 -
Juan Camilo Pérez Carabobo Actif 118 / 105 40% 1 13.11.2027 -
Franco Hanashiro Colegiales Actif 106 / 125 40% 1 13.11.2027 -
Maico Quiroz Güemes Actif 118 / 98 40% 2 12.11.2027 -
Tomás Ferreyra Defensores Unidos Actif 117 / 96 40% 1 12.11.2027 -
Facundo Ardiles Estudiantes Actif 111 / 119 40% 2 11.11.2027 -
Matías Benítez San Miguel Actif 103 / 107 40% 1 11.11.2027 -
Mauro Osores San Martín SJ Actif 125 / 113 40% 3 09.11.2027 -
Sheyko Studer Independiente Rivadavia Actif 115 / 108 40% 1 03.11.2027 -
Tomás Rojas Atlanta Actif 109 / 113 40% 1 03.11.2027 -
Innocent Arigu Katsina United Actif 95 / 79 40% 1 03.11.2027 -
Nazareno Fernández Colombo Los Andes Actif 95 / 87 40% 1 01.11.2027 -
José Mercado Union Magdalena Actif 120 / 117 40% 3 17.10.2027 -
Gino Barbieri Almagro Actif 121 / 97 40% 2 12.10.2027 -
Abel Bustos Racing Actif 114 / 123 40% 1 11.10.2027 -
Duke Osimaga Rivers United Actif 85 / 81 40% 1 08.10.2027 -
Gabriel Altamirano Almirante Brown Actif 123 / 90 40% 1 08.10.2027 -
Emanuel Iñíguez Morón Actif 114 / 116 40% 2 05.10.2027 -
Ian Pérez Defensores Actif 94 / 85 40% 1 05.10.2027 -
Matías Sánchez Racing Actif 120 / 101 40% 2 01.10.2027 -
Lautaro Lusnig Deportivo Tachira Actif 107 / 93 40% 1 30.09.2027 -
Matías Machado Racing Actif 124 / 129 40% 1 29.09.2027 -
Facundo Castet Colón Actif 120 / 110 40% 1 26.09.2027 -
Kabiru Tijjani Shooting Stars Actif 100 / 78 40% 1 21.09.2027 -
Steven Pabón Trujillanos Actif 113 / 111 40% 1 18.09.2027 -
Gabriel Otero Llaneros Actif 95 / 104 40% 1 11.09.2027 -
Cristhián Rivas Estudiantes de Merida Actif 118 / 113 40% 1 09.09.2027 -
Paulo Vitor Dinamo Batumi Actif 121 / 119 40% 1 09.09.2027 -
Brian Calderara Chacarita Juniors Actif 115 / 117 40% 1 07.09.2027 -
Deruo Wisdom Etoiles du Mande Actif 101 / 100 40% 1 02.09.2027 -
Giorgi Arabidze Torpedo Kutaisi Actif 112 / 114 40% 1 02.09.2027 -
Samuel Mathias Barau Actif 85 / 85 62% 1 16.08.2027 -
Hamza Choudhury Leicester City Actif 128 / 148 40% 1 09.08.2027 -
Kelechi Ogbodo Rangers International Actif 89 / 97 62% 1 05.07.2027 -
Lorent Tolaj Plymouth Argyle Actif 128 / 132 40% 1 07.06.2027 -
Josh Benson Rotherham United Actif 115 / 98 40% 1 02.06.2027 -
Idris El Mizouni Leyton Orient Actif 126 / 133 40% 1 02.06.2027 -
Simon Ramabu Polokwane City Actif 121 / 118 40% 3 31.05.2027 -
Giacomo Zecca Torres Actif 101 / 96 40% 1 31.05.2027 -
Thomas Waddingham Portsmouth Actif 108 / 120 40% 1 28.05.2027 -
Araphat Mohammed Berekum Chelsea Actif 102 / 118 40% 2 27.05.2027 -
Harvey White Stevenage Actif 110 / 132 40% 3 27.05.2027 -
Jovon Makama Norwich City Actif 124 / 141 40% 1 26.05.2027 -
Oswin Appollis Orlando Pirates Actif 110 / 114 40% 3 24.05.2027 -
Joe Snowdon Swindon Town Actif 99 / 106 40% 1 24.05.2027 -
John Yeboah Venezia Actif 115 / 139 40% 2 23.05.2027 -
Mattia Zennaro Union Brescia Actif 114 / 127 40% 1 19.05.2027 -
Michele Ambrosini AlbinoLeffe Actif 108 / 95 40% 1 16.05.2027 -
Derrick Fordjour Medeama Actif 101 / 99 40% 3 14.05.2027 -
Ronaldo Maarman University of Pretoria Actif 98 / 124 40% 1 14.05.2027 -
Siyanda Msani University of Pretoria Actif 92 / 102 40% 1 12.05.2027 -
Ben Lhassine Koné Frosinone Actif 110 / 106 40% 1 10.05.2027 -
Kwadwo Obeng Junior Heart of Lions Actif 95 / 72 40% 1 09.05.2027 -
Francis Sulemana Wa All Stars Actif 84 / 92 40% 1 08.05.2027 -
Junior Quitirna Wycombe Wanderers Actif 97 / 116 40% 2 06.05.2027 -
Sifiso Mokoena Black Aces Actif 86 / 83 40% 2 02.05.2027 -
Ewan Henderson Wycombe Wanderers Actif 110 / 132 40% 1 29.04.2027 -
Mohammed Djiku Wa All Stars Actif 95 / 90 40% 2 27.04.2027 -
Thalente Mbatha Orlando Pirates Actif 104 / 130 40% 1 27.04.2027 -
Trai Hume Sunderland Actif 139 / 121 40% 1 24.04.2027 -
Siyanda Ndlovu Bloemfontein Celtic Actif 130 / 121 40% 2 19.04.2027 -
Nicholas Ablido Great Olympics Actif 98 / 102 40% 1 14.04.2027 -
Bernat Guiu Virtus Entella Actif 131 / 136 40% 1 11.04.2027 -
Andrea Colpani Monza Actif 125 / 143 40% 1 10.04.2027 -
Eric Oteng Ashanti Gold Actif 85 / 84 40% 2 09.04.2027 -
Marcelo Allende Mamelodi Sundowns Actif 149 / 145 40% 1 28.03.2027 -
Thulani Dala Platinum Stars Actif 89 / 84 40% 1 27.03.2027 -
Idris Ajiya Nasarawa United Actif 71 / 75 58% 1 18.01.2027 -
Bassey Bassey Warri Wolves Actif 90 / 93 42% 1 / 1m 19.08.2026 -
Joel Odoh Rangers International Actif 89 / 96 58% 1 03.08.2026 -